createdAt,value
2023-03-30T00:00:23.686Z,1002.14
2023-03-30T00:01:23.644Z,1002.12
2023-03-30T00:02:23.680Z,1002.12
2023-03-30T00:03:23.746Z,1002.10
2023-03-30T00:04:23.705Z,1002.10
2023-03-30T00:05:23.619Z,1002.16
2023-03-30T00:06:23.749Z,1002.17
2023-03-30T00:07:23.573Z,1002.18
2023-03-30T00:08:23.573Z,1002.19
2023-03-30T00:09:23.562Z,1002.18
2023-03-30T00:10:23.540Z,1002.21
2023-03-30T00:11:23.589Z,1002.25
2023-03-30T00:12:23.524Z,1002.27
2023-03-30T00:13:23.521Z,1002.25
2023-03-30T00:14:23.831Z,1002.23
2023-03-30T00:15:23.483Z,1002.22
2023-03-30T00:16:23.612Z,1002.19
2023-03-30T00:17:23.463Z,1002.14
2023-03-30T00:18:23.456Z,1002.17
2023-03-30T00:19:23.479Z,1002.18
2023-03-30T00:20:23.461Z,1002.14
2023-03-30T00:21:23.495Z,1002.18
2023-03-30T00:22:23.424Z,1002.19
2023-03-30T00:23:23.425Z,1002.18
2023-03-30T00:24:23.424Z,1002.17
2023-03-30T00:25:23.421Z,1002.15
2023-03-30T00:26:23.368Z,1002.10
2023-03-30T00:27:23.358Z,1002.12
2023-03-30T00:28:23.437Z,1002.12
2023-03-30T00:29:23.386Z,1002.03
2023-03-30T00:30:23.355Z,1002.07
2023-03-30T00:31:23.362Z,1002.06
2023-03-30T00:32:23.364Z,1002.02
2023-03-30T00:33:33.507Z,1002.05
2023-03-30T00:34:24.292Z,1002.00
2023-03-30T00:35:23.288Z,1002.00
2023-03-30T00:36:23.476Z,1002.08
2023-03-30T00:37:23.256Z,1002.10
2023-03-30T00:38:23.250Z,1002.13
2023-03-30T00:39:23.252Z,1002.09
2023-03-30T00:40:23.283Z,1002.10
2023-03-30T00:41:23.313Z,1002.08
2023-03-30T00:42:23.222Z,1002.11
2023-03-30T00:43:23.236Z,1002.08
2023-03-30T00:44:23.275Z,1002.06
2023-03-30T00:45:23.195Z,1002.06
2023-03-30T00:46:23.185Z,1002.01
2023-03-30T00:47:23.149Z,1002.00
2023-03-30T00:48:23.162Z,1001.94
2023-03-30T00:49:23.123Z,1001.86
2023-03-30T00:50:23.117Z,1001.79
2023-03-30T00:51:23.200Z,1001.77
2023-03-30T00:52:23.093Z,1001.78
2023-03-30T00:53:23.129Z,1001.70
2023-03-30T00:54:23.058Z,1001.63
2023-03-30T00:55:23.062Z,1001.59
2023-03-30T00:56:23.052Z,1001.66
2023-03-30T00:57:23.055Z,1001.66
2023-03-30T00:58:23.038Z,1001.61
2023-03-30T00:59:23.001Z,1001.60
2023-03-30T01:00:23.113Z,1001.55
2023-03-30T01:01:23.047Z,1001.51
2023-03-30T01:02:23.004Z,1001.53
2023-03-30T01:03:23.201Z,1001.55
2023-03-30T01:04:22.960Z,1001.54
2023-03-30T01:05:22.934Z,1001.54
2023-03-30T01:06:22.934Z,1001.59
2023-03-30T01:07:22.910Z,1001.62
2023-03-30T01:08:22.920Z,1001.64
2023-03-30T01:09:22.905Z,1001.65
2023-03-30T01:10:22.892Z,1001.69
2023-03-30T01:11:22.878Z,1001.69
2023-03-30T01:12:22.857Z,1001.68
2023-03-30T01:13:22.920Z,1001.69
2023-03-30T01:14:22.898Z,1001.70
2023-03-30T01:15:22.825Z,1001.77
2023-03-30T01:16:22.843Z,1001.77
2023-03-30T01:17:22.801Z,1001.78
2023-03-30T01:18:22.864Z,1001.78
2023-03-30T01:19:22.786Z,1001.76
2023-03-30T01:20:22.791Z,1001.78
2023-03-30T01:21:22.833Z,1001.75
2023-03-30T01:22:22.759Z,1001.80
2023-03-30T01:23:22.754Z,1001.84
2023-03-30T01:24:22.852Z,1001.82
2023-03-30T01:25:22.719Z,1001.82
2023-03-30T01:26:22.729Z,1001.77
2023-03-30T01:27:22.690Z,1001.75
2023-03-30T01:28:22.756Z,1001.72
2023-03-30T01:29:22.720Z,1001.69
2023-03-30T01:30:22.666Z,1001.66
2023-03-30T01:31:22.795Z,1001.66
2023-03-30T01:32:22.722Z,1001.70
2023-03-30T01:33:22.640Z,1001.60
2023-03-30T01:34:22.664Z,1001.65
2023-03-30T01:35:22.639Z,1001.60
2023-03-30T01:36:22.647Z,1001.58
2023-03-30T01:37:22.589Z,1001.64
2023-03-30T01:38:22.660Z,1001.60
2023-03-30T01:39:22.562Z,1001.60
2023-03-30T01:40:22.566Z,1001.64
2023-03-30T01:41:22.542Z,1001.59
2023-03-30T01:42:22.544Z,1001.58
2023-03-30T01:43:22.535Z,1001.59
2023-03-30T01:44:22.527Z,1001.51
2023-03-30T01:45:22.508Z,1001.47
2023-03-30T01:46:22.572Z,1001.42
2023-03-30T01:47:22.604Z,1001.40
2023-03-30T01:48:22.492Z,1001.42
2023-03-30T01:49:22.475Z,1001.38
2023-03-30T01:50:22.450Z,1001.40
2023-03-30T01:51:22.438Z,1001.45
2023-03-30T01:52:22.463Z,1001.42
2023-03-30T01:53:22.425Z,1001.46
2023-03-30T01:54:22.460Z,1001.50
2023-03-30T01:55:22.387Z,1001.49
2023-03-30T01:56:22.460Z,1001.53
2023-03-30T01:57:22.572Z,1001.54
2023-03-30T01:58:22.381Z,1001.55
2023-03-30T01:59:22.379Z,1001.59
2023-03-30T02:00:22.337Z,1001.56
2023-03-30T02:01:22.367Z,1001.66
2023-03-30T02:02:22.351Z,1001.63
2023-03-30T02:03:22.376Z,1001.62
2023-03-30T02:04:22.324Z,1001.59
2023-03-30T02:05:22.280Z,1001.54
2023-03-30T02:06:22.297Z,1001.47
2023-03-30T02:07:22.266Z,1001.36
2023-03-30T02:08:22.245Z,1001.35
2023-03-30T02:09:22.246Z,1001.24
2023-03-30T02:10:22.232Z,1001.32
2023-03-30T02:11:22.214Z,1001.30
2023-03-30T02:12:22.219Z,1001.34
2023-03-30T02:13:22.203Z,1001.32
2023-03-30T02:14:22.243Z,1001.30
2023-03-30T02:15:22.201Z,1001.38
2023-03-30T02:16:22.203Z,1001.39
2023-03-30T02:17:22.155Z,1001.35
2023-03-30T02:18:22.153Z,1001.33
2023-03-30T02:19:22.172Z,1001.30
2023-03-30T02:20:22.146Z,1001.25
2023-03-30T02:21:22.106Z,1001.32
2023-03-30T02:22:22.115Z,1001.32
2023-03-30T02:23:22.103Z,1001.33
2023-03-30T02:24:22.117Z,1001.33
2023-03-30T02:25:22.064Z,1001.34
2023-03-30T02:26:22.116Z,1001.37
2023-03-30T02:27:22.034Z,1001.34
2023-03-30T02:28:22.038Z,1001.35
2023-03-30T02:29:22.044Z,1001.29
2023-03-30T02:30:22.023Z,1001.25
2023-03-30T02:31:22.047Z,1001.19
2023-03-30T02:32:21.996Z,1001.14
2023-03-30T02:33:21.975Z,1001.19
2023-03-30T02:34:22.008Z,1001.13
2023-03-30T02:35:21.957Z,1001.14
2023-03-30T02:36:21.956Z,1001.13
2023-03-30T02:37:21.993Z,1001.13
2023-03-30T02:38:21.956Z,1001.12
2023-03-30T02:39:21.938Z,1000.98
2023-03-30T02:40:21.962Z,1000.85
2023-03-30T02:41:21.976Z,1000.75
2023-03-30T02:42:21.891Z,1000.77
2023-03-30T02:43:21.871Z,1000.70
2023-03-30T02:44:21.873Z,1000.61
2023-03-30T02:45:22.015Z,1000.49
2023-03-30T02:46:21.982Z,1000.44
2023-03-30T02:47:21.999Z,1000.40
2023-03-30T02:48:21.818Z,1000.32
2023-03-30T02:49:21.818Z,1000.34
2023-03-30T02:50:21.818Z,1000.30
2023-03-30T02:51:21.847Z,1000.28
2023-03-30T02:52:21.784Z,1000.24
2023-03-30T02:53:21.808Z,1000.27
2023-03-30T02:54:21.777Z,1000.30
2023-03-30T02:55:21.772Z,1000.37
2023-03-30T02:56:21.734Z,1000.43
2023-03-30T02:57:21.731Z,1000.45
2023-03-30T02:58:21.727Z,1000.44
2023-03-30T02:59:21.715Z,1000.47
2023-03-30T03:00:21.691Z,1000.46
2023-03-30T03:01:21.828Z,1000.44
2023-03-30T03:02:21.793Z,1000.51
2023-03-30T03:03:21.739Z,1000.44
2023-03-30T03:04:21.671Z,1000.44
2023-03-30T03:05:21.637Z,1000.40
2023-03-30T03:06:21.641Z,1000.44
2023-03-30T03:07:21.638Z,1000.42
2023-03-30T03:08:21.609Z,1000.45
2023-03-30T03:09:21.607Z,1000.41
2023-03-30T03:10:21.580Z,1000.42
2023-03-30T03:11:21.569Z,1000.37
2023-03-30T03:12:21.659Z,1000.43
2023-03-30T03:13:21.558Z,1000.46
2023-03-30T03:14:21.547Z,1000.46
2023-03-30T03:15:21.588Z,1000.45
2023-03-30T03:16:21.558Z,1000.46
2023-03-30T03:17:21.505Z,1000.38
2023-03-30T03:18:21.497Z,1000.40
2023-03-30T03:19:21.514Z,1000.26
2023-03-30T03:20:21.498Z,1000.26
2023-03-30T03:21:21.462Z,1000.21
2023-03-30T03:22:21.455Z,1000.23
2023-03-30T03:23:21.452Z,1000.24
2023-03-30T03:24:21.470Z,1000.24
2023-03-30T03:25:21.434Z,1000.25
2023-03-30T03:26:21.463Z,1000.27
2023-03-30T03:27:21.396Z,1000.21
2023-03-30T03:28:21.385Z,1000.23
2023-03-30T03:29:21.421Z,1000.21
2023-03-30T03:30:21.360Z,1000.16
2023-03-30T03:31:21.416Z,1000.15
2023-03-30T03:32:21.351Z,1000.14
2023-03-30T03:33:21.320Z,1000.12
2023-03-30T03:34:21.339Z,1000.11
2023-03-30T03:35:21.317Z,1000.13
2023-03-30T03:36:21.318Z,1000.08
2023-03-30T03:37:21.285Z,1000.10
2023-03-30T03:38:21.274Z,1000.08
2023-03-30T03:39:21.351Z,1000.05
2023-03-30T03:40:21.317Z,1000.08
2023-03-30T03:41:21.240Z,1000.10
2023-03-30T03:42:21.254Z,1000.15
2023-03-30T03:43:21.240Z,1000.15
2023-03-30T03:44:21.231Z,1000.15
2023-03-30T03:45:21.231Z,1000.18
2023-03-30T03:46:21.213Z,1000.17
2023-03-30T03:47:21.281Z,1000.17
2023-03-30T03:48:21.160Z,1000.20
2023-03-30T03:49:21.215Z,1000.22
2023-03-30T03:50:21.146Z,1000.21
2023-03-30T03:51:21.145Z,1000.18
2023-03-30T03:52:21.144Z,1000.09
2023-03-30T03:53:21.166Z,999.97
2023-03-30T03:54:21.121Z,999.88
2023-03-30T03:55:21.101Z,999.82
2023-03-30T03:56:21.080Z,999.84
2023-03-30T03:57:21.095Z,999.90
2023-03-30T03:58:21.060Z,999.92
2023-03-30T03:59:21.071Z,999.88
2023-03-30T04:00:21.058Z,999.91
2023-03-30T04:01:21.022Z,999.98
2023-03-30T04:02:23.820Z,1000.02
2023-03-30T04:03:21.074Z,1000.00
2023-03-30T04:04:21.053Z,999.99
2023-03-30T04:05:20.977Z,999.97
2023-03-30T04:06:20.976Z,999.96
2023-03-30T04:07:20.954Z,999.89
2023-03-30T04:08:20.990Z,999.90
2023-03-30T04:09:20.962Z,999.89
2023-03-30T04:10:20.981Z,999.94
2023-03-30T04:11:20.954Z,999.99
2023-03-30T04:12:20.905Z,1000.03
2023-03-30T04:13:20.893Z,1000.05
2023-03-30T04:14:20.966Z,1000.03
2023-03-30T04:15:20.864Z,1000.04
2023-03-30T04:16:20.901Z,1000.00
2023-03-30T04:17:20.851Z,999.99
2023-03-30T04:18:20.838Z,999.99
2023-03-30T04:19:20.950Z,999.96
2023-03-30T04:20:20.850Z,999.97
2023-03-30T04:21:20.816Z,999.96
2023-03-30T04:22:20.808Z,999.97
2023-03-30T04:23:20.797Z,1000.01
2023-03-30T04:24:20.796Z,1000.03
2023-03-30T04:25:22.482Z,1000.04
2023-03-30T04:26:20.794Z,1000.05
2023-03-30T04:27:20.749Z,1000.07
2023-03-30T04:28:20.743Z,1000.11
2023-03-30T04:29:20.760Z,1000.10
2023-03-30T04:30:20.732Z,1000.03
2023-03-30T04:31:20.735Z,1000.04
2023-03-30T04:32:20.786Z,999.98
2023-03-30T04:33:20.681Z,1000.04
2023-03-30T04:34:20.693Z,1000.09
2023-03-30T04:35:20.662Z,1000.12
2023-03-30T04:36:20.764Z,1000.09
2023-03-30T04:37:20.635Z,1000.07
2023-03-30T04:38:20.646Z,1000.12
2023-03-30T04:39:20.623Z,1000.15
2023-03-30T04:40:20.615Z,1000.11
2023-03-30T04:41:20.613Z,1000.13
2023-03-30T04:42:20.588Z,1000.15
2023-03-30T04:43:20.587Z,1000.14
2023-03-30T04:44:20.587Z,1000.16
2023-03-30T04:45:20.550Z,1000.19
2023-03-30T04:46:20.621Z,1000.17
2023-03-30T04:47:20.541Z,1000.15
2023-03-30T04:48:20.532Z,1000.09
2023-03-30T04:49:20.585Z,1000.13
2023-03-30T04:50:20.500Z,1000.08
2023-03-30T04:51:20.481Z,1000.08
2023-03-30T04:52:20.658Z,1000.03
2023-03-30T04:53:20.470Z,1000.05
2023-03-30T04:54:20.472Z,1000.09
2023-03-30T04:55:20.454Z,1000.08
2023-03-30T04:56:20.441Z,1000.14
2023-03-30T04:57:20.523Z,1000.17
2023-03-30T04:58:20.429Z,1000.16
2023-03-30T04:59:20.489Z,1000.18
2023-03-30T05:00:20.438Z,1000.14
2023-03-30T05:01:20.396Z,1000.18
2023-03-30T05:02:20.455Z,1000.14
2023-03-30T05:03:23.032Z,1000.12
2023-03-30T05:04:20.420Z,1000.13
2023-03-30T05:05:20.350Z,1000.06
2023-03-30T05:06:20.455Z,1000.10
2023-03-30T05:07:20.327Z,1000.13
2023-03-30T05:08:20.309Z,1000.12
2023-03-30T05:09:20.306Z,1000.15
2023-03-30T05:10:20.303Z,1000.17
2023-03-30T05:11:20.344Z,1000.18
2023-03-30T05:12:20.279Z,1000.24
2023-03-30T05:13:20.254Z,1000.22
2023-03-30T05:14:20.267Z,1000.28
2023-03-30T05:15:20.233Z,1000.36
2023-03-30T05:16:20.342Z,1000.32
2023-03-30T05:17:20.217Z,1000.34
2023-03-30T05:18:20.192Z,1000.36
2023-03-30T05:19:20.205Z,1000.30
2023-03-30T05:20:20.206Z,1000.29
2023-03-30T05:21:20.170Z,1000.27
2023-03-30T05:22:20.314Z,1000.28
2023-03-30T05:23:20.163Z,1000.26
2023-03-30T05:24:20.135Z,1000.26
2023-03-30T05:25:20.133Z,1000.29
2023-03-30T05:26:20.216Z,1000.29
2023-03-30T05:27:20.104Z,1000.38
2023-03-30T05:28:20.130Z,1000.31
2023-03-30T05:29:20.169Z,1000.37
2023-03-30T05:30:20.069Z,1000.38
2023-03-30T05:31:20.085Z,1000.39
2023-03-30T05:32:20.052Z,1000.43
2023-03-30T05:33:20.046Z,1000.45
2023-03-30T05:34:20.057Z,1000.48
2023-03-30T05:35:20.032Z,1000.48
2023-03-30T05:36:19.999Z,1000.51
2023-03-30T05:37:20.004Z,1000.50
2023-03-30T05:38:20.001Z,1000.50
2023-03-30T05:39:20.004Z,1000.48
2023-03-30T05:40:20.000Z,1000.49
2023-03-30T05:41:19.952Z,1000.47
2023-03-30T05:42:19.932Z,1000.50
2023-03-30T05:43:19.960Z,1000.50
2023-03-30T05:44:22.363Z,1000.59
2023-03-30T05:45:19.900Z,1000.57
2023-03-30T05:46:19.924Z,1000.61
2023-03-30T05:47:19.883Z,1000.58
2023-03-30T05:48:19.868Z,1000.57
2023-03-30T05:49:19.882Z,1000.55
2023-03-30T05:50:19.853Z,1000.63
2023-03-30T05:51:19.846Z,1000.60
2023-03-30T05:52:19.828Z,1000.62
2023-03-30T05:53:19.835Z,1000.54
2023-03-30T05:54:19.830Z,1000.52
2023-03-30T05:55:19.798Z,1000.47
2023-03-30T05:56:19.816Z,1000.47
2023-03-30T05:57:19.777Z,1000.49
2023-03-30T05:58:19.781Z,1000.55
2023-03-30T05:59:19.768Z,1000.54
2023-03-30T06:00:19.739Z,1000.53
2023-03-30T06:01:19.776Z,1000.55
2023-03-30T06:02:19.880Z,1000.54
2023-03-30T06:03:19.854Z,1000.60
2023-03-30T06:04:19.850Z,1000.59
2023-03-30T06:05:19.760Z,1000.59
2023-03-30T06:06:19.690Z,1000.62
2023-03-30T06:07:19.673Z,1000.60
2023-03-30T06:08:22.176Z,1000.55
2023-03-30T06:09:19.661Z,1000.54
2023-03-30T06:10:19.633Z,1000.57
2023-03-30T06:11:19.628Z,1000.49
2023-03-30T06:12:19.607Z,1000.53
2023-03-30T06:13:19.601Z,1000.51
2023-03-30T06:14:19.644Z,1000.52
2023-03-30T06:15:19.581Z,1000.57
2023-03-30T06:16:19.655Z,1000.50
2023-03-30T06:17:19.733Z,1000.52
2023-03-30T06:18:19.564Z,1000.51
2023-03-30T06:19:19.553Z,1000.51
2023-03-30T06:20:19.529Z,1000.50
2023-03-30T06:21:19.541Z,1000.57
2023-03-30T06:22:19.506Z,1000.60
2023-03-30T06:23:19.502Z,1000.51
2023-03-30T06:24:19.504Z,1000.56
2023-03-30T06:25:19.472Z,1000.59
2023-03-30T06:26:19.477Z,1000.57
2023-03-30T06:27:19.456Z,1000.60
2023-03-30T06:28:21.751Z,1000.61
2023-03-30T06:29:42.882Z,1000.60
2023-03-30T06:30:20.409Z,1000.61
2023-03-30T06:31:19.456Z,1000.70
2023-03-30T06:32:19.405Z,1000.71
2023-03-30T06:33:19.380Z,1000.67
2023-03-30T06:34:19.426Z,1000.72
2023-03-30T06:35:19.397Z,1000.72
2023-03-30T06:36:19.767Z,1000.69
2023-03-30T06:37:19.366Z,1000.71
2023-03-30T06:38:19.352Z,1000.73
2023-03-30T06:39:19.385Z,1000.79
2023-03-30T06:40:19.304Z,1000.80
2023-03-30T06:41:19.459Z,1000.90
2023-03-30T06:42:19.344Z,1000.84
2023-03-30T06:43:19.281Z,1000.87
2023-03-30T06:44:19.320Z,1000.87
2023-03-30T06:45:19.259Z,1000.87
2023-03-30T06:46:19.328Z,1000.85
2023-03-30T06:47:19.408Z,1000.93
2023-03-30T06:48:19.227Z,1000.93
2023-03-30T06:49:19.270Z,1000.90
2023-03-30T06:50:19.242Z,1000.91
2023-03-30T06:51:19.203Z,1000.87
2023-03-30T06:52:19.432Z,1000.91
2023-03-30T06:53:19.176Z,1000.90
2023-03-30T06:54:19.175Z,1000.85
2023-03-30T06:55:19.149Z,1000.82
2023-03-30T06:56:19.180Z,1000.81
2023-03-30T06:57:19.226Z,1000.83
2023-03-30T06:58:19.171Z,1000.87
2023-03-30T06:59:19.137Z,1000.86
2023-03-30T07:00:19.147Z,1000.79
2023-03-30T07:01:19.168Z,1000.78
2023-03-30T07:02:19.113Z,1000.74
2023-03-30T07:03:19.129Z,1000.75
2023-03-30T07:04:19.193Z,1000.68
2023-03-30T07:05:19.113Z,1000.65
2023-03-30T07:06:20.632Z,1000.69
2023-03-30T07:07:19.013Z,1000.70
2023-03-30T07:08:19.030Z,1000.75
2023-03-30T07:09:19.053Z,1000.81
2023-03-30T07:10:19.433Z,1000.85
2023-03-30T07:11:18.969Z,1000.82
2023-03-30T07:12:18.961Z,1000.87
2023-03-30T07:13:18.951Z,1000.89
2023-03-30T07:14:18.987Z,1000.92
2023-03-30T07:15:18.940Z,1000.97
2023-03-30T07:16:19.164Z,1000.96
2023-03-30T07:17:18.900Z,1000.97
2023-03-30T07:18:18.950Z,1000.92
2023-03-30T07:19:19.111Z,1000.87
2023-03-30T07:20:18.883Z,1000.83
2023-03-30T07:21:18.859Z,1000.82
2023-03-30T07:22:18.856Z,1000.84
2023-03-30T07:23:18.846Z,1000.77
2023-03-30T07:24:18.883Z,1000.85
2023-03-30T07:25:18.818Z,1000.75
2023-03-30T07:26:18.833Z,1000.72
2023-03-30T07:27:18.927Z,1000.73
2023-03-30T07:28:19.051Z,1000.69
2023-03-30T07:29:19.498Z,1000.70
2023-03-30T07:30:22.144Z,1000.72
2023-03-30T07:31:18.824Z,1000.74
2023-03-30T07:32:18.811Z,1000.72
2023-03-30T07:33:18.848Z,1000.70
2023-03-30T07:34:18.766Z,1000.76
2023-03-30T07:35:18.740Z,1000.71
2023-03-30T07:36:18.743Z,1000.79
2023-03-30T07:37:20.643Z,1000.83
2023-03-30T07:38:18.682Z,1000.83
2023-03-30T07:39:18.673Z,1000.85
2023-03-30T07:40:18.701Z,1000.90
2023-03-30T07:41:18.717Z,1000.85
2023-03-30T07:42:18.736Z,1000.82
2023-03-30T07:43:18.720Z,1000.82
2023-03-30T07:44:18.656Z,1000.85
2023-03-30T07:45:18.623Z,1000.84
2023-03-30T07:46:18.609Z,1000.88
2023-03-30T07:47:18.601Z,1000.89
2023-03-30T07:48:18.581Z,1000.91
2023-03-30T07:49:18.580Z,1000.93
2023-03-30T07:50:18.566Z,1000.92
2023-03-30T07:51:18.530Z,1000.88
2023-03-30T07:52:18.568Z,1000.89
2023-03-30T07:53:18.515Z,1000.82
2023-03-30T07:54:18.541Z,1000.89
2023-03-30T07:55:18.514Z,1000.84
2023-03-30T07:56:18.564Z,1000.86
2023-03-30T07:57:18.538Z,1000.86
2023-03-30T07:58:18.591Z,1000.82
2023-03-30T07:59:18.451Z,1000.86
2023-03-30T08:00:18.434Z,1000.84
2023-03-30T08:01:18.414Z,1000.85
2023-03-30T08:02:18.427Z,1000.93
2023-03-30T08:03:18.516Z,1000.86
2023-03-30T08:04:18.551Z,1000.84
2023-03-30T08:05:18.661Z,1001.00
2023-03-30T08:06:18.377Z,1000.95
2023-03-30T08:07:18.404Z,1000.85
2023-03-30T08:08:18.375Z,1000.92
2023-03-30T08:09:18.357Z,1000.87
2023-03-30T08:10:18.334Z,1000.88
2023-03-30T08:11:18.358Z,1000.86
2023-03-30T08:12:18.314Z,1000.88
2023-03-30T08:13:20.563Z,1000.94
2023-03-30T08:14:18.303Z,1000.98
2023-03-30T08:15:18.307Z,1000.98
2023-03-30T08:16:18.340Z,1001.00
2023-03-30T08:17:18.305Z,1001.01
2023-03-30T08:18:18.272Z,1000.96
2023-03-30T08:19:18.230Z,1000.99
2023-03-30T08:20:18.308Z,1001.09
2023-03-30T08:21:18.210Z,1000.88
2023-03-30T08:22:18.193Z,1000.90
2023-03-30T08:23:18.170Z,1000.89
2023-03-30T08:24:18.198Z,1000.98
2023-03-30T08:25:18.180Z,1000.88
2023-03-30T08:26:18.181Z,1000.97
2023-03-30T08:27:18.141Z,1000.80
2023-03-30T08:28:18.155Z,1000.86
2023-03-30T08:29:18.138Z,1000.87
2023-03-30T08:30:18.168Z,1000.90
2023-03-30T08:31:18.188Z,1001.12
2023-03-30T08:32:18.093Z,1001.04
2023-03-30T08:33:18.086Z,1001.07
2023-03-30T08:34:18.100Z,1000.76
2023-03-30T08:35:18.167Z,1000.94
2023-03-30T08:36:18.077Z,1000.85
2023-03-30T08:37:18.094Z,1000.91
2023-03-30T08:38:18.078Z,1000.99
2023-03-30T08:39:18.045Z,1000.93
2023-03-30T08:40:19.363Z,1000.96
2023-03-30T08:41:18.018Z,1000.86
2023-03-30T08:42:17.983Z,1000.93
2023-03-30T08:43:17.990Z,1000.96
2023-03-30T08:44:18.026Z,1000.95
2023-03-30T08:45:17.957Z,1000.99
2023-03-30T08:46:18.033Z,1000.98
2023-03-30T08:47:18.049Z,1001.00
2023-03-30T08:48:17.987Z,1001.00
2023-03-30T08:49:17.968Z,1000.94
2023-03-30T08:50:17.917Z,1000.93
2023-03-30T08:51:17.874Z,1000.95
2023-03-30T08:52:17.906Z,1000.89
2023-03-30T08:53:17.920Z,1000.99
2023-03-30T08:54:17.856Z,1000.98
2023-03-30T08:55:17.833Z,1001.00
2023-03-30T08:56:17.836Z,1000.97
2023-03-30T08:57:20.255Z,1001.03
2023-03-30T08:58:17.848Z,1001.01
2023-03-30T08:59:17.824Z,1001.00
2023-03-30T09:00:18.231Z,1001.08
2023-03-30T09:01:17.780Z,1001.08
2023-03-30T09:02:17.818Z,1001.05
2023-03-30T09:03:17.785Z,1001.06
2023-03-30T09:04:17.872Z,1001.03
2023-03-30T09:05:17.754Z,1001.05
2023-03-30T09:06:17.837Z,1001.08
2023-03-30T09:07:17.822Z,1001.11
2023-03-30T09:08:17.807Z,1001.16
2023-03-30T09:09:17.737Z,1001.16
2023-03-30T09:10:17.708Z,1001.13
2023-03-30T09:11:18.014Z,1001.18
2023-03-30T09:12:17.649Z,1001.13
2023-03-30T09:13:17.646Z,1001.13
2023-03-30T09:14:17.706Z,1001.18
2023-03-30T09:15:17.622Z,1001.20
2023-03-30T09:16:17.675Z,1001.16
2023-03-30T09:17:17.606Z,1001.23
2023-03-30T09:18:17.588Z,1001.26
2023-03-30T09:19:17.601Z,1001.28
2023-03-30T09:20:17.602Z,1001.25
2023-03-30T09:21:17.556Z,1001.22
2023-03-30T09:22:17.555Z,1001.31
2023-03-30T09:23:17.586Z,1001.23
2023-03-30T09:24:17.596Z,1001.22
2023-03-30T09:25:17.594Z,1001.25
2023-03-30T09:26:17.564Z,1001.23
2023-03-30T09:27:17.485Z,1001.27
2023-03-30T09:28:17.528Z,1001.28
2023-03-30T09:29:17.502Z,1001.39
2023-03-30T09:30:17.515Z,1001.33
2023-03-30T09:31:18.712Z,1001.38
2023-03-30T09:32:17.528Z,1001.34
2023-03-30T09:33:17.450Z,1001.35
2023-03-30T09:34:17.498Z,1001.35
2023-03-30T09:35:17.428Z,1001.38
2023-03-30T09:36:17.462Z,1001.36
2023-03-30T09:37:17.386Z,1001.47
2023-03-30T09:38:17.389Z,1001.57
2023-03-30T09:39:17.380Z,1001.59
2023-03-30T09:40:17.347Z,1001.48
2023-03-30T09:41:17.353Z,1001.28
2023-03-30T09:42:17.404Z,1001.33
2023-03-30T09:43:17.321Z,1001.38
2023-03-30T09:44:17.374Z,1001.44
2023-03-30T09:45:17.293Z,1001.49
2023-03-30T09:46:17.370Z,1001.49
2023-03-30T09:47:17.319Z,1001.44
2023-03-30T09:48:17.448Z,1001.52
2023-03-30T09:49:17.285Z,1001.79
2023-03-30T09:50:17.257Z,1001.85
2023-03-30T09:51:17.253Z,1001.59
2023-03-30T09:52:17.212Z,1002.02
2023-03-30T09:53:17.215Z,1002.22
2023-03-30T09:54:17.370Z,1002.27
2023-03-30T09:55:17.224Z,1002.24
2023-03-30T09:56:17.189Z,1002.25
2023-03-30T09:57:17.214Z,1002.46
2023-03-30T09:58:17.257Z,1002.42
2023-03-30T09:59:17.161Z,1002.50
2023-03-30T10:00:17.140Z,1002.66
2023-03-30T10:01:17.158Z,1002.77
2023-03-30T10:02:17.157Z,1002.52
2023-03-30T10:03:17.199Z,1002.82
2023-03-30T10:04:17.283Z,1002.79
2023-03-30T10:05:17.117Z,1002.90
2023-03-30T10:06:17.189Z,1002.94
2023-03-30T10:07:18.895Z,1002.91
2023-03-30T10:08:17.094Z,1002.82
2023-03-30T10:09:17.090Z,1002.91
2023-03-30T10:10:17.086Z,1002.92
2023-03-30T10:11:17.071Z,1002.93
2023-03-30T10:12:17.114Z,1002.87
2023-03-30T10:13:17.007Z,1002.94
2023-03-30T10:14:17.011Z,1002.94
2023-03-30T10:15:16.978Z,1002.88
2023-03-30T10:16:17.008Z,1002.91
2023-03-30T10:17:16.951Z,1002.95
2023-03-30T10:18:16.992Z,1002.94
2023-03-30T10:19:17.175Z,1002.86
2023-03-30T10:20:16.998Z,1002.89
2023-03-30T10:21:16.903Z,1002.88
2023-03-30T10:22:16.935Z,1002.73
2023-03-30T10:23:16.898Z,1002.67
2023-03-30T10:24:17.196Z,1002.68
2023-03-30T10:25:16.863Z,1002.71
2023-03-30T10:26:16.843Z,1002.64
2023-03-30T10:27:16.833Z,1002.69
2023-03-30T10:28:16.850Z,1002.71
2023-03-30T10:29:16.835Z,1002.62
2023-03-30T10:30:16.869Z,1002.67
2023-03-30T10:31:16.839Z,1002.63
2023-03-30T10:32:16.799Z,1002.60
2023-03-30T10:33:16.998Z,1002.59
2023-03-30T10:34:17.381Z,1002.47
2023-03-30T10:35:16.760Z,1002.50
2023-03-30T10:36:16.782Z,1002.50
2023-03-30T10:37:16.771Z,1002.45
2023-03-30T10:38:16.825Z,1002.47
2023-03-30T10:39:16.735Z,1002.50
2023-03-30T10:40:16.858Z,1002.59
2023-03-30T10:41:16.691Z,1002.59
2023-03-30T10:42:16.736Z,1002.70
2023-03-30T10:43:16.671Z,1002.62
2023-03-30T10:44:16.754Z,1002.78
2023-03-30T10:45:16.678Z,1002.58
2023-03-30T10:46:19.314Z,1002.58
2023-03-30T10:47:16.673Z,1002.66
2023-03-30T10:48:16.702Z,1002.85
2023-03-30T10:49:16.650Z,1002.82
2023-03-30T10:50:16.631Z,1002.83
2023-03-30T10:51:16.577Z,1002.79
2023-03-30T10:52:16.571Z,1002.85
2023-03-30T10:53:16.551Z,1002.76
2023-03-30T10:54:16.576Z,1002.79
2023-03-30T10:55:16.535Z,1002.65
2023-03-30T10:56:16.556Z,1002.64
2023-03-30T10:57:16.608Z,1002.54
2023-03-30T10:58:16.512Z,1002.75
2023-03-30T10:59:16.542Z,1002.55
2023-03-30T11:00:16.505Z,1002.60
2023-03-30T11:01:16.699Z,1002.57
2023-03-30T11:02:16.463Z,1002.58
2023-03-30T11:03:16.633Z,1002.51
2023-03-30T11:04:23.120Z,1002.52
2023-03-30T11:05:17.430Z,1002.53
2023-03-30T11:06:16.422Z,1002.53
2023-03-30T11:07:16.402Z,1002.79
2023-03-30T11:08:16.455Z,1002.59
2023-03-30T11:09:16.435Z,1002.58
2023-03-30T11:10:16.476Z,1002.60
2023-03-30T11:11:16.381Z,1002.62
2023-03-30T11:12:16.407Z,1002.60
2023-03-30T11:13:16.349Z,1002.64
2023-03-30T11:14:16.423Z,1002.61
2023-03-30T11:15:16.318Z,1002.66
2023-03-30T11:16:16.715Z,1002.65
2023-03-30T11:17:16.293Z,1002.58
2023-03-30T11:18:16.319Z,1002.61
2023-03-30T11:19:16.324Z,1002.65
2023-03-30T11:20:16.338Z,1002.63
2023-03-30T11:21:16.252Z,1002.52
2023-03-30T11:22:16.286Z,1002.57
2023-03-30T11:23:16.234Z,1002.59
2023-03-30T11:24:16.226Z,1002.55
2023-03-30T11:25:16.217Z,1002.43
2023-03-30T11:26:16.217Z,1002.70
2023-03-30T11:27:16.235Z,1002.49
2023-03-30T11:28:16.290Z,1002.56
2023-03-30T11:29:16.188Z,1002.58
2023-03-30T11:30:16.225Z,1002.71
2023-03-30T11:31:16.995Z,1002.55
2023-03-30T11:32:16.194Z,1002.53
2023-03-30T11:33:16.197Z,1002.49
2023-03-30T11:34:16.130Z,1002.60
2023-03-30T11:35:16.182Z,1002.67
2023-03-30T11:36:16.224Z,1002.65
2023-03-30T11:37:16.115Z,1002.60
2023-03-30T11:38:16.109Z,1002.54
2023-03-30T11:39:31.178Z,1002.66
2023-03-30T11:40:17.379Z,1002.64
2023-03-30T11:41:16.122Z,1002.64
2023-03-30T11:42:16.046Z,1002.62
2023-03-30T11:43:16.021Z,1002.64
2023-03-30T11:44:16.032Z,1002.74
2023-03-30T11:45:16.040Z,1002.76
2023-03-30T11:46:16.041Z,1002.77
2023-03-30T11:47:16.104Z,1002.75
2023-03-30T11:48:16.010Z,1002.87
2023-03-30T11:49:15.961Z,1002.78
2023-03-30T11:50:15.981Z,1002.81
2023-03-30T11:51:15.927Z,1002.75
2023-03-30T11:52:15.945Z,1002.81
2023-03-30T11:53:15.906Z,1002.98
2023-03-30T11:54:15.919Z,1002.98
2023-03-30T11:55:15.908Z,1002.96
2023-03-30T11:56:15.953Z,1002.91
2023-03-30T11:57:15.909Z,1002.91
2023-03-30T11:58:15.861Z,1002.82
2023-03-30T11:59:15.894Z,1002.86
2023-03-30T12:00:15.881Z,1002.90
2023-03-30T12:01:15.820Z,1002.81
2023-03-30T12:02:15.850Z,1002.84
2023-03-30T12:03:15.913Z,1002.84
2023-03-30T12:04:15.968Z,1002.73
2023-03-30T12:05:15.790Z,1002.79
2023-03-30T12:06:15.858Z,1002.76